BCCM7: Buffalo Creek near Tiff City, MO

Data processed at Wed May 22 2019 23:50


All information presented herein is the property of the government of the United States of America and may be revised or deleted at any time without prior notice.
Dissemination of this information without the expressed written consent of the Public Affairs Office, Tulsa District U.S. Army Corps of Engineers is strictly prohibited.
These data are gathered electronically and, as presented, have not undergone any form of quality control. These data are not guaranteed to be valid or correct.
Go to home page.
Go to station list.
Go to home page.

Downstream station:


Previous Day
Next Day
Current Day
    
SHEF ID:       BCCM7     Buffalo Creek at Tiff City, MO
STATION TYPE:  

               PRECIP     STAGE  RIV-FLOW   VOLTAGE
                   in        ft       cfs      volt
              Ccp-Rev   Ccp-Rev   Ccp-Rev   Ccp-Rev
(US/Central)
05/22 00:00      0.00      7.54      2569     12.47
05/22 01:00      0.00      7.19      2276     12.47
05/22 02:00      0.00      6.83      1990     12.47
05/22 03:00      0.00      6.59      1792     12.47
05/22 04:00      0.00      6.31      1570     12.47
05/22 05:00      0.10      6.21      1493     12.47
05/22 06:00      0.00      6.04      1368     12.47
05/22 07:00      0.00      5.91      1276     12.47
05/22 08:00      0.00      5.89      1261     12.47
05/22 09:00      0.00      5.87      1247     12.71
05/22 10:00      0.00      5.84      1225     12.71
05/22 11:00      0.00      5.80      1197     12.94
05/22 12:00      0.00      5.79      1190     12.94
05/22 13:00      0.00      5.60      1062     13.17
05/22 14:00      0.00      5.37       919     13.41
05/22 15:00      0.00      5.31       883     13.17
05/22 16:00      0.00      5.26       854     13.17
05/22 17:00      0.00      5.24       843     12.94
05/22 18:00      0.00      5.24       843     12.94
05/22 19:00      0.00      5.28       866     12.71
05/22 20:00      0.00      5.12       774     12.71
05/22 21:00      0.00      5.08       752     12.47
05/22 22:00      0.10      4.93       671     12.47
05/22 23:00      0.00      5.11       768     12.47